Terminal Aerodrome Forecast
Issued by NWS Bismarck, ND

Home | Current Version | Previous Version | Graphics & Text | Print | Product List | Glossary On
Versions: 1 2 3 4 5 6 7 8 9 10 11 12 13 14
292
FTUS43 KBIS 221343 AAA
TAFISN
TAF AMD
KISN 221343Z 2214/2312 21003KT P6SM FEW002
      TEMPO 2214/2215 3SM BR SCT001
     FM221600 21004KT P6SM SCT250
     FM230200 25006KT P6SM BKN200=

USA.gov is the U.S. government's official web portal to all federal, state and local government web resources and services.